Time;durP1;ratioP1;P1;durP2;ratioP2;P2;SDS_P1;SDS_P2;PMS_P1;PMS_P2;Temp;Humidity;BMP_temperature;BMP_pressure;BME280_temperature;BME280_humidity;BME280_pressure;Samples;Min_cycle;Max_cycle;Signal;HPM_P1;HPM_P2
2023/09/02 00:02:11;;;;;;;11.88;5.20;;;;;;;16.22;nan;100922.34;4980947;28;20030;-70
2023/09/02 00:04:36;;;;;;;9.40;4.85;;;;;;;16.11;nan;100907.31;5012582;28;20112;-70
2023/09/02 00:07:02;;;;;;;6.60;4.35;;;;;;;16.04;nan;100907.53;5010628;28;20097;-70
2023/09/02 00:09:27;;;;;;;9.00;5.32;;;;;;;16.02;nan;100904.31;5013846;28;20509;-70
2023/09/02 00:11:52;;;;;;;9.90;4.75;;;;;;;16.05;nan;100916.31;4994550;28;20037;-70
2023/09/02 00:14:18;;;;;;;9.93;5.05;;;;;;;16.07;nan;100927.50;5029261;28;20100;-70
2023/09/02 00:16:43;;;;;;;10.52;5.13;;;;;;;15.98;nan;100927.13;5029040;28;20231;-69
2023/09/02 00:19:09;;;;;;;11.25;4.95;;;;;;;15.84;nan;100910.75;5012345;28;20025;-69
2023/09/02 00:21:34;;;;;;;10.27;5.10;;;;;;;15.89;nan;100932.06;5030674;28;20096;-69
2023/09/02 00:24:05;;;;;;;9.85;4.40;;;;;;;15.69;nan;100918.50;5028106;28;20037;-70
2023/09/02 00:26:31;;;;;;;11.20;5.20;;;;;;;15.72;nan;100921.47;5030119;28;20028;-69
2023/09/02 00:28:56;;;;;;;12.45;5.22;;;;;;;15.66;nan;100930.41;5027607;28;20029;-69
2023/09/02 00:31:22;;;;;;;8.90;4.70;;;;;;;15.64;nan;100931.72;5029126;28;20022;-70
2023/09/02 00:33:47;;;;;;;7.20;4.78;;;;;;;15.65;nan;100931.44;5028157;28;20033;-70
2023/09/02 00:36:14;;;;;;;9.05;4.20;;;;;;;15.60;nan;100920.75;5004457;28;20116;-69
2023/09/02 00:38:39;;;;;;;11.77;4.43;;;;;;;15.71;nan;100929.72;5028445;28;20025;-69
2023/09/02 00:41:09;;;;;;;10.27;4.60;;;;;;;15.71;nan;100927.06;5028449;28;20497;-69
2023/09/02 00:43:36;;;;;;;8.07;4.05;;;;;;;15.77;nan;100934.03;5010067;28;20576;-69
2023/09/02 00:46:02;;;;;;;7.55;4.30;;;;;;;15.68;nan;100908.91;5029153;28;20025;-69
2023/09/02 00:48:27;;;;;;;9.48;4.40;;;;;;;15.80;nan;100932.72;5029854;28;20475;-69
2023/09/02 00:50:53;;;;;;;8.07;3.60;;;;;;;15.73;nan;100923.09;5028653;28;20021;-69
2023/09/02 00:53:19;;;;;;;10.32;4.00;;;;;;;15.81;nan;100937.81;5026602;28;20041;-70
2023/09/02 00:55:46;;;;;;;7.13;3.42;;;;;;;15.86;nan;100942.38;5012401;28;20025;-69
2023/09/02 00:58:12;;;;;;;5.90;3.72;;;;;;;15.75;nan;100930.81;5029118;28;20094;-69
2023/09/02 01:00:38;;;;;;;7.65;4.03;;;;;;;15.84;nan;100939.97;5028329;28;20022;-69
2023/09/02 01:03:03;;;;;;;6.22;4.00;;;;;;;15.86;nan;100939.72;5026265;28;20467;-69
2023/09/02 01:05:29;;;;;;;5.82;3.78;;;;;;;15.86;nan;100940.53;5028057;28;20443;-69
2023/09/02 01:07:56;;;;;;;6.10;4.13;;;;;;;15.86;nan;100942.38;5008165;28;20043;-71
2023/09/02 01:10:23;;;;;;;5.38;3.75;;;;;;;15.79;nan;100941.75;5028439;28;20448;-70
2023/09/02 01:12:48;;;;;;;6.32;3.85;;;;;;;15.78;nan;100945.44;5028105;28;20454;-71
2023/09/02 01:15:14;;;;;;;8.20;4.13;;;;;;;15.62;nan;100934.59;5026835;28;20044;-69
2023/09/02 01:17:39;;;;;;;7.28;3.50;;;;;;;15.66;nan;100946.34;5010392;28;20122;-72
2023/09/02 01:20:07;;;;;;;8.35;4.00;;;;;;;15.60;nan;100935.91;5027144;28;20025;-72
2023/09/02 01:22:54;;;;;;;6.50;4.18;;;;;;;15.40;nan;100902.72;5029097;28;20033;-71
2023/09/02 01:25:53;;;;;;;9.32;3.70;;;;;;;15.62;nan;100936.47;5027083;28;20128;-71
2023/09/02 01:28:24;;;;;;;;;;;;;;;15.60;nan;100939.34;5029272;28;20025;-71
2023/09/02 01:30:53;;;;;;;6.53;3.60;;;;;;;15.36;nan;100895.50;5027071;28;20012;-70
2023/09/02 01:33:21;;;;;;;5.50;3.60;;;;;;;15.32;nan;100893.34;5026449;28;20427;-69
2023/09/02 01:35:50;;;;;;;9.73;3.63;;;;;;;15.53;nan;100928.91;5026550;28;20411;-69
2023/09/02 01:38:17;;;;;;;10.05;4.30;;;;;;;15.48;nan;100928.03;5027810;28;20025;-71
2023/09/02 01:40:44;;;;;;;9.82;4.30;;;;;;;15.43;nan;100928.78;5027641;28;20064;-71
2023/09/02 01:43:11;;;;;;;7.60;3.95;;;;;;;15.35;nan;100925.72;5007170;28;20021;-70
2023/09/02 01:45:37;;;;;;;7.05;3.67;;;;;;;15.35;nan;100942.47;5025505;28;20427;-71
2023/09/02 01:48:03;;;;;;;7.70;3.88;;;;;;;15.30;nan;100931.78;5008729;28;20033;-71
2023/09/02 01:50:31;;;;;;;6.63;4.28;;;;;;;15.31;nan;100941.34;5028273;28;20364;-71
2023/09/02 01:52:58;;;;;;;8.77;4.25;;;;;;;15.20;nan;100931.59;5027641;28;20120;-68
2023/09/02 01:55:24;;;;;;;7.35;3.95;;;;;;;15.27;nan;100948.16;5028530;28;20136;-70
2023/09/02 01:57:50;;;;;;;8.02;3.83;;;;;;;15.12;nan;100926.72;5026705;28;20108;-68
2023/09/02 02:00:18;;;;;;;8.30;4.35;;;;;;;15.16;nan;100941.91;5009542;28;20030;-69
2023/09/02 02:02:49;;;;;;;7.13;3.88;;;;;;;15.05;nan;100921.56;5024309;28;20025;-69
2023/09/02 02:05:17;;;;;;;6.88;3.72;;;;;;;15.07;nan;100925.59;5026835;28;20041;-69
2023/09/02 02:07:49;;;;;;;7.53;3.63;;;;;;;15.07;nan;100935.41;5006839;28;20769;-68
2023/09/02 02:10:23;;;;;;;7.90;4.00;;;;;;;15.04;nan;100931.38;5029306;28;20688;-69
2023/09/02 02:12:54;;;;;;;6.78;3.55;;;;;;;15.03;nan;100929.75;5023024;28;20049;-68
2023/09/02 02:15:20;;;;;;;8.55;3.83;;;;;;;14.91;nan;100914.97;5026212;28;20061;-68
2023/09/02 02:17:46;;;;;;;8.77;4.47;;;;;;;14.91;nan;100915.78;5024896;28;20068;-68
2023/09/02 02:20:11;;;;;;;6.70;4.15;;;;;;;14.91;nan;100925.59;5028463;28;20033;-70
2023/09/02 02:22:38;;;;;;;8.35;3.92;;;;;;;14.85;nan;100919.41;5025283;28;20029;-68
2023/09/02 02:25:04;;;;;;;6.05;3.60;;;;;;;14.88;nan;100924.22;5027076;28;20107;-70
2023/09/02 02:27:29;;;;;;;8.82;3.83;;;;;;;14.87;nan;100925.28;5007035;28;20106;-68
2023/09/02 02:29:57;;;;;;;5.70;3.53;;;;;;;14.83;nan;100919.63;5027512;28;20064;-68
2023/09/02 02:32:23;;;;;;;7.90;3.80;;;;;;;14.82;nan;100922.50;5026120;28;20060;-71
2023/09/02 02:34:49;;;;;;;7.80;4.03;;;;;;;14.73;nan;100908.06;5025198;28;20099;-69
2023/09/02 02:37:14;;;;;;;4.63;3.50;;;;;;;14.80;nan;100924.63;5007585;28;20029;-70
2023/09/02 02:39:39;;;;;;;11.00;3.97;;;;;;;14.70;nan;100909.34;5027751;28;20087;-68
2023/09/02 02:42:05;;;;;;;6.85;3.88;;;;;;;14.73;nan;100922.13;5026046;28;20025;-70
2023/09/02 02:44:31;;;;;;;8.73;3.78;;;;;;;14.73;nan;100922.13;5011088;28;20013;-67
2023/09/02 02:46:56;;;;;;;6.28;4.50;;;;;;;14.68;nan;100919.38;5015650;28;20128;-69
2023/09/02 02:49:22;;;;;;;6.43;4.05;;;;;;;14.66;nan;100918.81;5027982;28;20112;-69
2023/09/02 02:51:47;;;;;;;13.18;4.38;;;;;;;14.58;nan;100911.25;5027308;28;20454;-68
2023/09/02 02:54:13;;;;;;;10.73;4.28;;;;;;;14.58;nan;100901.47;5025793;28;20068;-68
2023/09/02 02:56:38;;;;;;;9.40;4.00;;;;;;;14.62;nan;100915.03;5026660;28;20420;-69
2023/09/02 02:59:03;;;;;;;7.63;4.03;;;;;;;14.48;nan;100901.25;5027292;28;20100;-68
2023/09/02 03:01:30;;;;;;;6.50;4.28;;;;;;;14.53;nan;100914.56;5027416;28;20051;-70
2023/09/02 03:03:55;;;;;;;9.55;4.20;;;;;;;14.51;nan;100919.34;5027380;28;20048;-70
2023/09/02 03:06:21;;;;;;;6.65;3.88;;;;;;;14.42;nan;100902.22;5026368;28;20652;-72
2023/09/02 03:08:47;;;;;;;11.38;4.00;;;;;;;14.44;nan;100916.81;5023889;28;20072;-70
2023/09/02 03:11:13;;;;;;;8.02;3.97;;;;;;;14.38;nan;100914.31;5025506;28;20436;-68
2023/09/02 03:13:39;;;;;;;5.82;3.75;;;;;;;14.35;nan;100906.84;5026576;28;20069;-69
2023/09/02 03:16:07;;;;;;;7.22;4.25;;;;;;;14.34;nan;100907.88;5008944;28;20065;-68
2023/09/02 03:18:33;;;;;;;7.00;3.90;;;;;;;14.34;nan;100911.34;5028084;28;20033;-69
2023/09/02 03:21:05;;;;;;;8.75;3.80;;;;;;;14.32;nan;100915.25;5024941;28;20435;-69
2023/09/02 03:23:33;;;;;;;6.90;4.18;;;;;;;14.29;nan;100919.19;5026239;28;20033;-70
2023/09/02 03:26:06;;;;;;;12.13;4.03;;;;;;;14.09;nan;100889.69;5007120;28;20064;-69
2023/09/02 03:28:32;;;;;;;8.82;4.30;;;;;;;14.18;nan;100907.59;4995469;28;20025;-69
2023/09/02 03:31:06;;;;;;;6.97;3.83;;;;;;;14.17;nan;100905.19;5012597;28;20075;-69
2023/09/02 03:33:31;;;;;;;7.95;4.75;;;;;;;14.19;nan;100919.00;5004483;28;20025;-71
2023/09/02 03:35:57;;;;;;;11.93;3.90;;;;;;;14.07;nan;100908.44;5028372;28;20044;-69
2023/09/02 03:38:22;;;;;;;8.80;3.85;;;;;;;14.18;nan;100933.28;5030389;28;20029;-68
2023/09/02 03:40:48;;;;;;;8.38;4.15;;;;;;;14.15;nan;100931.09;5030431;28;20120;-71
2023/09/02 03:43:16;;;;;;;9.63;4.25;;;;;;;14.02;nan;100916.28;5027292;28;20060;-68
2023/09/02 03:45:41;;;;;;;8.30;4.20;;;;;;;14.01;nan;100922.63;5008066;28;20026;-69
2023/09/02 03:48:07;;;;;;;10.18;5.03;;;;;;;14.05;nan;100939.63;5031167;28;20023;-69
2023/09/02 03:50:32;;;;;;;9.70;4.45;;;;;;;14.03;nan;100933.78;5012543;28;20028;-70
2023/09/02 03:52:58;;;;;;;6.38;4.10;;;;;;;13.99;nan;100928.16;5029542;28;20025;-70
2023/09/02 03:55:23;;;;;;;9.27;4.50;;;;;;;14.08;nan;100941.84;5010239;28;20037;-71
2023/09/02 03:57:48;;;;;;;10.02;4.22;;;;;;;13.98;nan;100923.91;5029337;28;20094;-69
2023/09/02 04:00:16;;;;;;;8.57;4.30;;;;;;;14.06;nan;100937.81;5028950;28;20112;-68
2023/09/02 04:02:42;;;;;;;10.23;4.63;;;;;;;13.98;nan;100955.69;5009789;28;20025;-69
2023/09/02 04:05:08;;;;;;;11.30;4.63;;;;;;;13.89;nan;100949.13;5031140;28;20030;-73
2023/09/02 04:07:45;;;;;;;11.68;4.55;;;;;;;13.85;nan;100939.25;5009865;28;20029;-68
2023/09/02 04:10:10;;;;;;;10.45;4.72;;;;;;;13.75;nan;100943.28;5029116;28;20021;-69
2023/09/02 04:12:35;;;;;;;7.63;4.50;;;;;;;13.79;nan;100951.53;5028017;28;20053;-71
2023/09/02 04:15:01;;;;;;;7.78;4.72;;;;;;;13.72;nan;100935.81;5030908;28;20033;-69
2023/09/02 04:17:27;;;;;;;9.57;4.60;;;;;;;13.73;nan;100948.00;5028994;28;20017;-69
2023/09/02 04:19:54;;;;;;;7.50;5.45;;;;;;;13.72;nan;100946.41;5029546;28;20071;-69
2023/09/02 04:22:20;;;;;;;8.10;4.82;;;;;;;13.83;nan;100966.72;5009434;28;20053;-69
2023/09/02 04:24:45;;;;;;;8.63;4.93;;;;;;;13.83;nan;100955.34;5012583;28;20087;-68
2023/09/02 04:27:10;;;;;;;8.05;4.45;;;;;;;13.80;nan;100956.63;5030078;28;20030;-70
2023/09/02 04:29:36;;;;;;;9.77;4.93;;;;;;;13.81;nan;100950.31;5029535;28;20045;-70
2023/09/02 04:32:01;;;;;;;6.18;4.43;;;;;;;13.78;nan;100940.16;5028397;28;20029;-73
2023/09/02 04:34:27;;;;;;;10.35;5.63;;;;;;;13.81;nan;100942.38;5028991;28;20075;-73
2023/09/02 04:36:52;;;;;;;11.10;5.07;;;;;;;13.78;nan;100944.66;5029845;28;20021;-73
2023/09/02 04:39:18;;;;;;;9.80;4.70;;;;;;;13.93;nan;100957.41;5008339;28;20028;-73
2023/09/02 04:41:43;;;;;;;7.03;4.20;;;;;;;14.00;nan;100950.94;5027956;28;20534;-74
2023/09/02 04:44:08;;;;;;;10.38;5.00;;;;;;;14.06;nan;100964.31;5012306;28;20029;-74
2023/09/02 04:46:34;;;;;;;10.73;4.40;;;;;;;14.00;nan;100961.53;5028366;28;20029;-73
2023/09/02 04:48:59;;;;;;;9.65;4.43;;;;;;;14.04;nan;100964.53;5029261;28;20064;-73
2023/09/02 04:51:24;;;;;;;6.57;4.15;;;;;;;14.11;nan;100969.69;5027314;28;20072;-74
2023/09/02 04:53:50;;;;;;;9.00;3.95;;;;;;;14.13;nan;100965.78;5027933;28;20037;-74
2023/09/02 04:56:15;;;;;;;10.50;4.55;;;;;;;14.11;nan;100951.97;5028881;28;20025;-73
2023/09/02 04:58:40;;;;;;;6.18;3.92;;;;;;;14.23;nan;100968.63;5011119;28;20026;-74
2023/09/02 05:01:07;;;;;;;8.40;3.95;;;;;;;14.19;nan;100956.88;5028313;28;20033;-74
2023/09/02 05:03:33;;;;;;;9.70;4.38;;;;;;;14.20;nan;100953.19;5026040;28;20026;-69
2023/09/02 05:05:58;;;;;;;7.85;3.67;;;;;;;14.38;nan;100978.69;5025469;28;20651;-71
2023/09/02 05:08:24;;;;;;;7.03;3.80;;;;;;;14.40;nan;100962.56;5027266;28;20040;-69
2023/09/02 05:10:49;;;;;;;6.20;3.72;;;;;;;14.41;nan;100948.28;5011221;28;20452;-73
2023/09/02 05:13:15;;;;;;;6.95;4.30;;;;;;;14.54;nan;100979.03;5029355;28;20135;-70
2023/09/02 05:15:40;;;;;;;6.82;3.90;;;;;;;14.53;nan;100972.88;5028424;28;20431;-69
2023/09/02 05:18:05;;;;;;;11.23;3.90;;;;;;;14.53;nan;100956.97;5009070;28;20088;-72
2023/09/02 05:20:31;;;;;;;7.68;3.88;;;;;;;14.72;nan;100978.81;5025037;28;20160;-69
2023/09/02 05:22:56;;;;;;;7.43;3.45;;;;;;;14.77;nan;100978.09;5026597;28;20029;-69
2023/09/02 05:25:22;;;;;;;7.25;3.60;;;;;;;14.82;nan;100970.25;5028004;28;20031;-69
2023/09/02 05:27:48;;;;;;;8.40;3.80;;;;;;;14.88;nan;100974.59;5026532;28;20061;-72
2023/09/02 05:30:14;;;;;;;7.30;3.47;;;;;;;15.18;nan;101022.06;5008434;28;20056;-69
2023/09/02 05:32:39;;;;;;;7.35;3.80;;;;;;;15.03;nan;100987.31;5024350;28;20503;-69
2023/09/02 05:35:05;;;;;;;6.05;3.40;;;;;;;15.13;nan;100990.13;5019992;28;20029;-71
2023/09/02 05:37:30;;;;;;;8.95;3.63;;;;;;;15.13;nan;100976.06;5025644;28;20040;-70
2023/09/02 05:39:56;;;;;;;10.30;4.10;;;;;;;15.25;nan;100982.91;5025896;28;20075;-68
2023/09/02 05:42:21;;;;;;;9.32;3.50;;;;;;;15.31;nan;100978.47;5025199;28;20030;-70
2023/09/02 05:44:46;;;;;;;6.78;3.50;;;;;;;15.45;nan;100984.28;5026288;28;20485;-68
2023/09/02 05:47:12;;;;;;;7.20;4.10;;;;;;;15.53;nan;100979.34;5023586;28;20120;-71
2023/09/02 05:49:37;;;;;;;15.82;4.25;;;;;;;15.65;nan;100983.75;5026224;28;20107;-70
2023/09/02 05:52:06;;;;;;;7.57;3.58;;;;;;;15.76;nan;100985.53;5027692;28;20021;-68
2023/09/02 05:54:32;;;;;;;7.27;3.63;;;;;;;15.86;nan;100974.25;5028785;28;20076;-69
2023/09/02 05:56:57;;;;;;;11.00;3.97;;;;;;;16.01;nan;100978.94;5027984;28;20037;-70
2023/09/02 05:59:23;;;;;;;10.75;4.22;;;;;;;16.10;nan;100974.81;5029608;28;20021;-70
2023/09/02 06:01:48;;;;;;;11.90;4.63;;;;;;;16.20;nan;100977.59;5026936;28;20464;-77
2023/09/02 06:04:13;;;;;;;7.00;3.80;;;;;;;16.31;nan;100970.53;5028532;28;20037;-73
2023/09/02 06:06:39;;;;;;;7.93;3.47;;;;;;;16.40;nan;100977.03;5008119;28;20038;-76
2023/09/02 06:09:04;;;;;;;6.60;3.20;;;;;;;;;;5027677;28;20479;-77
2023/09/02 06:11:30;;;;;;;5.43;3.33;;;;;;;;;;5023913;28;20079;-76
2023/09/02 06:13:55;;;;;;;8.18;3.70;;;;;;;;;;5008859;28;20748;-75
2023/09/02 06:16:20;;;;;;;6.13;3.47;;;;;;;;;;5003379;28;20036;-71
2023/09/02 06:18:46;;;;;;;12.63;3.60;;;;;;;;;;5025874;28;20309;-71
2023/09/02 06:21:12;;;;;;;5.40;3.28;;;;;;;;;;5026744;28;20286;-69
2023/09/02 06:23:37;;;;;;;8.63;3.67;;;;;;;;;;5026350;28;20033;-69
2023/09/02 06:26:03;;;;;;;6.97;3.35;;;;;;;;;;5025504;28;20410;-68
2023/09/02 06:28:28;;;;;;;6.85;3.40;;;;;;;;;;5009242;28;20483;-72
2023/09/02 06:30:54;;;;;;;8.90;3.50;;;;;;;;;;5025392;28;20030;-71
2023/09/02 06:33:23;;;;;;;6.15;3.45;;;;;;;17.24;nan;100983.69;5025339;28;20065;-70
2023/09/02 06:35:49;;;;;;;10.87;3.70;;;;;;;17.37;nan;101001.88;5023014;28;20022;-69
2023/09/02 06:38:15;;;;;;;9.38;3.30;;;;;;;17.45;nan;100995.25;5026391;28;20031;-71
2023/09/02 06:40:41;;;;;;;9.73;3.88;;;;;;;17.52;nan;100989.72;5022521;28;20030;-68
2023/09/02 06:43:06;;;;;;;10.70;4.07;;;;;;;17.67;nan;100981.84;5025340;28;20037;-68
2023/09/02 06:45:31;;;;;;;9.50;3.30;;;;;;;17.88;nan;100997.94;5000109;28;20443;-71
2023/09/02 06:47:57;;;;;;;6.72;3.80;;;;;;;17.91;nan;100994.75;5026615;28;20044;-71
2023/09/02 06:50:22;;;;;;;7.10;3.50;;;;;;;17.99;nan;100978.28;5023937;28;20036;-71
2023/09/02 06:52:48;;;;;;;8.45;3.70;;;;;;;18.10;nan;100990.59;5026915;28;20068;-69
2023/09/02 06:55:15;;;;;;;6.97;3.92;;;;;;;18.29;nan;101004.25;5026804;28;20059;-71
2023/09/02 06:57:44;;;;;;;6.25;3.45;;;;;;;18.35;nan;101003.22;5023404;28;20120;-72
2023/09/02 07:00:10;;;;;;;6.53;3.42;;;;;;;18.37;nan;100995.75;5023951;28;20029;-68
2023/09/02 07:02:35;;;;;;;6.43;3.40;;;;;;;18.36;nan;100980.81;5026504;28;20084;-67
2023/09/02 07:05:01;;;;;;;6.03;3.58;;;;;;;18.59;nan;101005.41;5025010;28;20080;-69
2023/09/02 07:07:26;;;;;;;8.35;3.60;;;;;;;18.65;nan;101009.66;5026548;28;20025;-68
2023/09/02 07:09:52;;;;;;;6.47;3.00;;;;;;;18.67;nan;100989.66;5026612;28;20035;-67
2023/09/02 07:12:17;;;;;;;8.45;3.35;;;;;;;18.87;nan;101004.16;5026300;28;20084;-69
2023/09/02 07:14:43;;;;;;;8.25;3.28;;;;;;;18.71;nan;100982.75;5007382;28;20093;-70
2023/09/02 07:17:08;;;;;;;6.88;3.00;;;;;;;18.83;nan;100990.53;5025016;28;20080;-69
2023/09/02 07:19:34;;;;;;;4.82;3.20;;;;;;;19.05;nan;101016.16;5026233;28;20555;-69
2023/09/02 07:21:59;;;;;;;5.13;2.92;;;;;;;19.15;nan;101020.72;5026013;28;20084;-67
2023/09/02 07:24:24;;;;;;;8.10;3.30;;;;;;;19.27;nan;101015.91;5022780;28;20032;-69
2023/09/02 07:26:50;;;;;;;10.43;3.67;;;;;;;19.31;nan;101023.09;5003794;28;20464;-69
2023/09/02 07:29:15;;;;;;;7.40;3.05;;;;;;;19.39;nan;101026.31;5006791;28;20064;-67
2023/09/02 07:31:41;;;;;;;12.18;3.47;;;;;;;19.36;nan;101002.81;5026209;28;20032;-68
2023/09/02 07:34:06;;;;;;;3.35;2.65;;;;;;;19.52;nan;101029.25;5024608;28;20022;-69
2023/09/02 07:36:31;;;;;;;6.90;3.25;;;;;;;19.54;nan;101015.63;5026890;28;20071;-66
2023/09/02 07:38:57;;;;;;;5.72;2.88;;;;;;;19.71;nan;101026.84;5025432;28;20057;-68
2023/09/02 07:41:22;;;;;;;6.60;3.03;;;;;;;19.76;nan;101026.81;5026187;28;20021;-69
2023/09/02 07:43:47;;;;;;;5.53;2.78;;;;;;;19.89;nan;101013.97;5023430;28;20079;-69
2023/09/02 07:46:13;;;;;;;7.72;2.80;;;;;;;20.00;nan;101020.88;5026575;28;20029;-67
2023/09/02 07:48:38;;;;;;;6.95;3.08;;;;;;;20.08;nan;101016.84;5009058;28;20029;-67
2023/09/02 07:51:04;;;;;;;4.82;2.88;;;;;;;20.11;nan;101005.59;5026413;28;20756;-71
2023/09/02 07:53:29;;;;;;;9.77;3.40;;;;;;;20.33;nan;101026.66;5023454;28;20102;-71
2023/09/02 07:55:55;;;;;;;6.57;3.08;;;;;;;20.32;nan;101017.00;5025437;28;20060;-70
2023/09/02 07:58:20;;;;;;;9.73;3.20;;;;;;;20.43;nan;101023.91;5026434;28;20065;-73
2023/09/02 08:00:46;;;;;;;5.18;2.53;;;;;;;20.49;nan;101025.47;5027512;28;20387;-71
2023/09/02 08:03:11;;;;;;;7.03;3.22;;;;;;;20.60;nan;101019.03;5008572;28;20470;-74
2023/09/02 08:05:41;;;;;;;9.00;3.40;;;;;;;20.69;nan;101021.94;5026645;28;20033;-74
2023/09/02 08:08:07;;;;;;;8.60;2.92;;;;;;;20.83;nan;101030.13;5025805;28;20795;-71
2023/09/02 08:10:34;;;;;;;4.05;2.72;;;;;;;20.73;nan;100998.06;5025568;28;20049;-71
2023/09/02 08:12:59;;;;;;;6.45;2.90;;;;;;;20.97;nan;101027.59;5008126;28;20059;-70
2023/09/02 08:15:25;;;;;;;6.55;3.25;;;;;;;21.04;nan;101026.22;5009569;28;20470;-72
2023/09/02 08:17:51;;;;;;;4.00;2.60;;;;;;;21.13;nan;101028.31;5028547;28;20021;-73
2023/09/02 08:20:16;;;;;;;5.15;2.70;;;;;;;21.24;nan;101029.81;5012701;28;20051;-71
2023/09/02 08:22:43;;;;;;;4.25;2.92;;;;;;;21.37;nan;101026.47;5027525;28;20029;-72
2023/09/02 08:25:09;;;;;;;8.35;2.67;;;;;;;21.50;nan;101027.75;5007901;28;20026;-70
2023/09/02 08:27:34;;;;;;;6.22;2.47;;;;;;;21.66;nan;101026.50;5028402;28;20481;-70
2023/09/02 08:29:59;;;;;;;5.90;2.65;;;;;;;21.80;nan;101034.66;5011126;28;20136;-72
2023/09/02 08:32:25;;;;;;;4.32;2.58;;;;;;;21.93;nan;101035.06;5029365;28;20041;-71
2023/09/02 08:34:51;;;;;;;4.07;2.30;;;;;;;21.98;nan;101030.47;5026477;28;20030;-71
2023/09/02 08:37:16;;;;;;;5.50;2.78;;;;;;;22.04;nan;101017.78;5026526;28;20124;-73
2023/09/02 08:39:42;;;;;;;5.00;2.65;;;;;;;22.21;nan;101031.53;5024131;28;20123;-74
2023/09/02 08:42:08;;;;;;;3.83;2.40;;;;;;;22.37;nan;101039.41;5022151;28;20470;-74
2023/09/02 08:44:35;;;;;;;4.60;2.20;;;;;;;22.42;nan;101042.03;5010549;28;20026;-74
2023/09/02 08:47:02;;;;;;;3.05;2.40;;;;;;;22.47;nan;101039.28;5027010;28;20041;-74
2023/09/02 08:49:28;;;;;;;3.35;2.33;;;;;;;22.53;nan;101030.06;5026825;28;20052;-72
2023/09/02 08:51:54;;;;;;;3.95;2.22;;;;;;;22.57;nan;101033.75;5027394;28;20037;-74
2023/09/02 08:54:21;;;;;;;4.55;2.58;;;;;;;22.72;nan;101027.34;5027651;28;20116;-73
2023/09/02 08:56:48;;;;;;;3.58;2.80;;;;;;;22.78;nan;101036.16;5024252;28;20022;-73
2023/09/02 08:59:14;;;;;;;3.40;2.42;;;;;;;22.84;nan;101040.34;5019480;28;20029;-67
2023/09/02 09:01:44;;;;;;;5.22;2.78;;;;;;;22.84;nan;101030.44;5022483;28;20064;-67
2023/09/02 09:04:12;;;;;;;4.47;2.40;;;;;;;22.95;nan;101033.75;5024761;28;20569;-69
2023/09/02 09:06:39;;;;;;;6.03;2.30;;;;;;;22.94;nan;101027.56;5028536;28;20045;-69
2023/09/02 09:09:07;;;;;;;4.25;2.25;;;;;;;23.00;nan;101027.53;5006933;28;20045;-67
2023/09/02 09:11:36;;;;;;;3.63;2.45;;;;;;;23.03;nan;101027.72;5027739;28;20032;-70
2023/09/02 09:14:02;;;;;;;4.40;2.38;;;;;;;23.10;nan;101024.66;5027275;28;20060;-69
2023/09/02 09:16:31;;;;;;;4.28;2.45;;;;;;;23.14;nan;101021.09;5028779;28;20025;-66
2023/09/02 09:18:57;;;;;;;6.20;2.53;;;;;;;23.27;nan;101024.94;5025998;28;20394;-66
2023/09/02 09:21:26;;;;;;;5.80;2.40;;;;;;;23.31;nan;101019.75;5027711;28;20037;-68
2023/09/02 09:23:51;;;;;;;6.38;2.30;;;;;;;23.36;nan;101014.28;5027818;28;20033;-67
2023/09/02 09:26:18;;;;;;;3.90;2.38;;;;;;;23.44;nan;101019.00;5027395;28;20033;-69
2023/09/02 09:28:56;;;;;;;4.00;2.40;;;;;;;23.60;nan;101029.47;5026568;28;20021;-66
2023/09/02 09:31:23;;;;;;;3.60;2.23;;;;;;;23.76;nan;101025.44;5022938;28;20033;-68
2023/09/02 09:33:54;;;;;;;3.00;2.60;;;;;;;23.92;nan;101018.66;5024554;28;20021;-72
2023/09/02 09:36:21;;;;;;;5.30;2.30;;;;;;;24.06;nan;101024.00;5010618;28;20025;-72
2023/09/02 09:38:49;;;;;;;3.70;2.30;;;;;;;24.15;nan;101013.34;5028010;28;20442;-73
2023/09/02 09:41:14;;;;;;;5.20;2.60;;;;;;;24.16;nan;101010.34;5006870;28;20478;-68
2023/09/02 09:43:40;;;;;;;3.38;2.60;;;;;;;24.28;nan;101004.47;5021671;28;20033;-69
2023/09/02 09:46:05;;;;;;;3.47;2.45;;;;;;;24.40;nan;101003.94;5025192;28;20033;-69
2023/09/02 09:48:30;;;;;;;4.80;2.70;;;;;;;24.55;nan;101011.69;5029433;28;20034;-69
2023/09/02 09:50:56;;;;;;;3.42;2.30;;;;;;;24.61;nan;101015.88;5028849;28;20115;-69
2023/09/02 09:53:21;;;;;;;4.30;2.17;;;;;;;24.76;nan;101009.31;5024154;28;20026;-66
2023/09/02 09:55:47;;;;;;;4.30;2.33;;;;;;;24.82;nan;101013.47;5009683;28;20399;-69
2023/09/02 09:58:22;;;;;;;3.13;2.38;;;;;;;24.91;nan;101018.16;5025384;28;20034;-69
2023/09/02 10:00:52;;;;;;;4.03;2.50;;;;;;;25.00;nan;101014.41;5025732;28;20022;-69
2023/09/02 10:03:28;;;;;;;4.22;2.25;;;;;;;25.06;nan;101006.97;5001894;28;20030;-69
2023/09/02 10:05:58;;;;;;;3.97;2.75;;;;;;;25.18;nan;101015.31;5026740;28;20214;-68
2023/09/02 10:08:24;;;;;;;5.07;2.50;;;;;;;25.16;nan;101004.03;5023532;28;20033;-69
2023/09/02 10:10:49;;;;;;;4.57;2.22;;;;;;;25.22;nan;101012.81;5024505;28;20533;-69
2023/09/02 10:13:15;;;;;;;2.88;2.28;;;;;;;25.29;nan;101009.69;5024443;28;20057;-69
2023/09/02 10:15:42;;;;;;;2.70;2.20;;;;;;;25.37;nan;101006.25;5001991;28;20399;-69
2023/09/02 10:18:07;;;;;;;3.22;2.60;;;;;;;25.52;nan;101010.41;5025913;28;20040;-68
2023/09/02 10:20:35;;;;;;;5.13;2.13;;;;;;;25.61;nan;101012.03;5024925;28;20037;-69
2023/09/02 10:23:10;;;;;;;2.85;2.08;;;;;;;25.72;nan;101012.59;5026889;28;20423;-74
2023/09/02 10:26:13;;;;;;;2.33;2.10;;;;;;;25.82;nan;101006.88;5025698;28;20162;-74
2023/09/02 10:28:40;;;;;;;4.00;1.90;;;;;;;25.85;nan;101008.16;5025151;28;20032;-75
2023/09/02 10:31:22;;;;;;;2.53;2.28;;;;;;;25.85;nan;101008.16;5024102;28;20491;-74
2023/09/02 10:34:13;;;;;;;3.40;2.00;;;;;;;25.86;nan;101010.59;5020541;28;20479;-74
2023/09/02 10:36:41;;;;;;;2.05;1.85;;;;;;;25.83;nan;101011.16;5027201;28;20081;-74
2023/09/02 10:39:21;;;;;;;2.90;2.10;;;;;;;25.86;nan;101007.09;5021918;28;20033;-69
2023/09/02 10:41:47;;;;;;;5.38;2.40;;;;;;;25.80;nan;101000.22;5024015;28;20041;-68
2023/09/02 10:44:13;;;;;;;4.13;1.98;;;;;;;25.75;nan;100993.06;5001520;28;20059;-68
2023/09/02 10:46:39;;;;;;;2.63;2.00;;;;;;;25.87;nan;101005.97;5018319;28;20017;-68
2023/09/02 10:49:05;;;;;;;3.20;2.10;;;;;;;25.82;nan;100976.44;5024808;28;20057;-68
2023/09/02 10:51:31;;;;;;;5.97;2.20;;;;;;;26.14;nan;101010.31;5023036;28;20531;-68
2023/09/02 10:53:57;;;;;;;3.90;2.25;;;;;;;26.27;nan;101005.91;5022928;28;20116;-69
2023/09/02 10:56:34;;;;;;;6.50;1.92;;;;;;;26.22;nan;100977.16;5024559;28;20471;-68
2023/09/02 10:59:01;;;;;;;2.50;1.80;;;;;;;26.56;nan;101009.94;5027006;28;20029;-68
2023/09/02 11:01:41;;;;;;;3.35;1.90;;;;;;;26.71;nan;101007.53;5000374;28;20455;-67
2023/09/02 11:04:06;;;;;;;2.40;1.92;;;;;;;26.82;nan;101008.00;5008620;28;20450;-68
2023/09/02 11:06:31;;;;;;;4.88;1.95;;;;;;;26.86;nan;100992.72;5004854;28;20029;-68
2023/09/02 11:08:57;;;;;;;3.38;2.08;;;;;;;26.96;nan;101010.53;5025619;28;20029;-68
2023/09/02 11:11:23;;;;;;;3.03;2.10;;;;;;;26.95;nan;100988.09;5024985;28;20511;-67
2023/09/02 11:14:06;;;;;;;2.42;2.00;;;;;;;27.06;nan;100995.88;5024675;28;20037;-68
2023/09/02 11:16:38;;;;;;;3.63;2.15;;;;;;;27.12;nan;100997.28;5025083;28;20369;-68
2023/09/02 11:19:08;;;;;;;4.07;2.20;;;;;;;27.20;nan;100996.50;5020248;28;20025;-68
2023/09/02 11:21:41;;;;;;;3.55;2.30;;;;;;;27.17;nan;100997.09;5019617;28;20067;-67
2023/09/02 11:24:28;;;;;;;3.47;1.90;;;;;;;26.86;nan;100964.91;5013237;28;20025;-68
2023/09/02 11:26:53;;;;;;;2.08;1.67;;;;;;;27.13;nan;100996.19;4962821;28;20026;-67
2023/09/02 11:29:29;;;;;;;4.00;2.45;;;;;;;27.21;nan;100987.28;4988761;28;20103;-68
2023/09/02 11:32:03;;;;;;;5.72;2.10;;;;;;;27.17;nan;100989.00;4980183;28;20029;-71
2023/09/02 11:34:30;;;;;;;3.63;2.10;;;;;;;27.14;nan;100987.72;5002481;28;20048;-68
2023/09/02 11:36:57;;;;;;;2.25;1.90;;;;;;;27.22;nan;100988.84;5004088;28;20100;-71
2023/09/02 11:39:27;;;;;;;2.13;1.92;;;;;;;27.27;nan;100977.06;5004193;28;20040;-72
2023/09/02 11:42:09;;;;;;;2.53;1.73;;;;;;;27.44;nan;100990.53;4980812;28;20029;-66
2023/09/02 11:44:35;;;;;;;2.13;1.70;;;;;;;27.53;nan;100993.19;5005541;28;20407;-67
2023/09/02 11:47:05;;;;;;;2.55;1.83;;;;;;;27.57;nan;100984.09;5003764;28;20037;-68